createdAt,value
2019-03-12T00:02:15.889Z,2.20
2019-03-12T00:04:45.721Z,2.63
2019-03-12T00:07:14.669Z,2.50
2019-03-12T00:09:44.682Z,2.67
2019-03-12T00:12:14.328Z,2.63
2019-03-12T00:14:44.046Z,2.50
2019-03-12T00:17:13.906Z,2.70
2019-03-12T00:19:44.611Z,2.80
2019-03-12T00:22:14.686Z,2.70
2019-03-12T00:24:45.361Z,2.97
2019-03-12T00:27:14.510Z,2.90
2019-03-12T00:29:44.030Z,3.23
2019-03-12T00:35:42.163Z,3.20
2019-03-12T00:38:11.901Z,3.27
2019-03-12T00:40:41.461Z,3.50
2019-03-12T00:43:11.042Z,3.37
2019-03-12T00:45:39.915Z,3.37
2019-03-12T00:48:09.801Z,3.20
2019-03-12T00:50:38.730Z,3.43
2019-03-12T00:53:07.559Z,3.30
2019-03-12T00:55:36.447Z,3.50
2019-03-12T00:58:05.572Z,3.50
2019-03-12T01:00:35.578Z,4.10
2019-03-12T01:03:05.641Z,4.07
2019-03-12T01:18:59.408Z,4.40
2019-03-12T01:21:28.943Z,4.30
2019-03-12T01:23:58.818Z,4.40
2019-03-12T01:26:28.126Z,4.60
2019-03-12T01:28:57.660Z,4.17
2019-03-12T01:31:27.549Z,4.20
2019-03-12T01:33:57.467Z,4.07
2019-03-12T01:36:26.561Z,4.17
2019-03-12T01:38:56.316Z,4.27
2019-03-12T01:41:26.384Z,4.20
2019-03-12T01:43:55.848Z,3.77
2019-03-12T01:46:25.521Z,4.10
2019-03-12T01:48:55.361Z,4.13
2019-03-12T01:51:24.248Z,4.33
2019-03-12T01:53:54.503Z,4.50
2019-03-12T01:56:24.774Z,4.10
2019-03-12T01:58:54.198Z,4.57
2019-03-12T02:01:23.561Z,4.80
2019-03-12T02:03:52.380Z,5.20
2019-03-12T02:06:23.932Z,4.10
2019-03-12T02:08:52.790Z,5.07
2019-03-12T02:11:22.475Z,4.73
2019-03-12T02:13:51.268Z,5.07
2019-03-12T02:16:21.025Z,5.27
2019-03-12T02:18:50.654Z,4.77
2019-03-12T02:21:21.024Z,5.17
2019-03-12T02:23:50.879Z,4.90
2019-03-12T02:26:21.470Z,5.30
2019-03-12T02:28:51.791Z,4.60
2019-03-12T02:31:22.456Z,4.90
2019-03-12T02:33:52.426Z,5.23
2019-03-12T02:36:23.718Z,5.13
2019-03-12T02:38:52.863Z,5.60
2019-03-12T02:41:22.923Z,5.43
2019-03-12T02:43:51.734Z,5.83
2019-03-12T02:46:21.875Z,5.90
2019-03-12T02:48:51.826Z,6.10
2019-03-12T02:51:20.677Z,6.03
2019-03-12T02:53:49.705Z,6.23
2019-03-12T02:56:19.220Z,5.67
2019-03-12T02:58:48.995Z,6.17
2019-03-12T03:01:19.148Z,6.37
2019-03-12T03:03:48.594Z,6.73
2019-03-12T03:11:33.480Z,6.83
2019-03-12T03:14:03.171Z,6.80
2019-03-12T03:16:32.319Z,6.17
2019-03-12T03:19:03.755Z,6.63
2019-03-12T03:21:33.523Z,6.77
2019-03-12T03:24:03.334Z,6.43
2019-03-12T03:26:33.107Z,6.07
2019-03-12T03:29:03.172Z,5.43
2019-03-12T03:31:32.191Z,5.37
2019-03-12T03:34:04.981Z,5.40
2019-03-12T03:36:33.917Z,4.40
2019-03-12T03:39:05.530Z,4.53
2019-03-12T03:41:35.931Z,4.87
2019-03-12T03:44:05.551Z,4.90
2019-03-12T03:46:34.430Z,4.10
2019-03-12T03:49:03.421Z,4.57
2019-03-12T03:51:34.069Z,5.07
2019-03-12T03:54:04.788Z,4.70
2019-03-12T03:56:35.120Z,4.60
2019-03-12T03:59:04.506Z,5.77
2019-03-12T04:01:35.337Z,5.63
2019-03-12T04:04:04.366Z,6.63
2019-03-12T04:06:34.300Z,6.07
2019-03-12T04:09:05.079Z,5.63
2019-03-12T04:11:34.332Z,7.23
2019-03-12T04:14:03.291Z,6.80
2019-03-12T04:16:32.111Z,6.77
2019-03-12T04:19:01.038Z,7.00
2019-03-12T04:21:30.951Z,6.40
2019-03-12T04:24:00.423Z,6.90
2019-03-12T04:26:29.404Z,6.30
2019-03-12T04:28:58.689Z,6.40
2019-03-12T04:31:30.340Z,6.13
2019-03-12T04:34:22.212Z,6.37
2019-03-12T04:36:51.886Z,6.70
2019-03-12T04:39:20.785Z,6.57
2019-03-12T04:41:50.561Z,6.90
2019-03-12T04:44:19.518Z,7.53
2019-03-12T04:46:48.955Z,6.90
2019-03-12T04:49:17.761Z,7.10
2019-03-12T04:51:47.334Z,8.03
2019-03-12T04:54:16.193Z,7.57
2019-03-12T04:56:45.122Z,7.67
2019-03-12T04:59:14.025Z,9.27
2019-03-12T05:01:42.996Z,8.60
2019-03-12T05:04:12.063Z,9.03
2019-03-12T05:06:41.406Z,9.33
2019-03-12T05:09:11.170Z,8.43
2019-03-12T05:11:47.244Z,9.00
2019-03-12T05:14:35.161Z,8.17
2019-03-12T05:17:15.722Z,8.40
2019-03-12T05:19:45.627Z,7.77
2019-03-12T05:22:16.441Z,8.57
2019-03-12T05:24:46.731Z,7.37
2019-03-12T05:27:15.605Z,8.77
2019-03-12T05:29:44.472Z,8.00
2019-03-12T05:32:13.761Z,8.83
2019-03-12T05:34:42.714Z,7.93
2019-03-12T05:37:11.639Z,7.17
2019-03-12T05:39:40.668Z,7.50
2019-03-12T05:42:11.927Z,6.70
2019-03-12T05:44:41.004Z,8.03
2019-03-12T05:47:21.891Z,6.67
2019-03-12T05:49:50.749Z,6.40
2019-03-12T05:52:20.031Z,6.03
2019-03-12T05:54:50.033Z,6.80
2019-03-12T05:57:18.862Z,6.23
2019-03-12T05:59:47.772Z,6.77
2019-03-12T06:02:16.681Z,7.77
2019-03-12T06:04:45.699Z,6.93
2019-03-12T06:07:14.779Z,7.10
2019-03-12T06:09:43.584Z,8.00
2019-03-12T06:12:12.524Z,6.77
2019-03-12T06:14:41.417Z,8.10
2019-03-12T06:17:10.508Z,7.50
2019-03-12T06:19:39.386Z,7.37
2019-03-12T06:22:11.695Z,6.97
2019-03-12T06:25:36.710Z,8.43
2019-03-12T06:28:05.883Z,6.80
2019-03-12T06:30:44.525Z,9.30
2019-03-12T06:33:18.725Z,7.37
2019-03-12T06:36:06.822Z,7.47
2019-03-12T06:38:57.675Z,9.03
2019-03-12T06:41:48.609Z,8.70
2019-03-12T06:51:16.028Z,10.10
2019-03-12T06:57:53.607Z,9.87
2019-03-12T07:00:36.563Z,9.50
2019-03-12T07:03:28.612Z,9.87
2019-03-12T07:06:17.786Z,10.10
2019-03-12T07:08:53.835Z,9.07
2019-03-12T07:11:43.206Z,8.70
2019-03-12T07:14:29.710Z,9.47
2019-03-12T07:17:02.579Z,8.93
2019-03-12T07:19:45.101Z,8.33
2019-03-12T07:22:33.588Z,7.93
2019-03-12T07:25:07.881Z,6.40
2019-03-12T07:27:58.020Z,7.13
2019-03-12T07:30:47.184Z,7.30
2019-03-12T07:33:30.149Z,6.10
2019-03-12T07:36:20.014Z,6.87
2019-03-12T07:39:14.256Z,5.30
2019-03-12T07:42:01.160Z,5.20
2019-03-12T07:44:52.200Z,4.47
2019-03-12T07:47:36.066Z,4.27
2019-03-12T07:50:27.830Z,4.17
2019-03-12T07:53:19.544Z,4.10
2019-03-12T07:56:00.970Z,4.20
2019-03-12T07:58:42.093Z,4.20
2019-03-12T08:01:29.402Z,3.93
2019-03-12T08:04:16.583Z,3.30
2019-03-12T08:07:13.000Z,3.93
2019-03-12T08:09:55.620Z,3.77
2019-03-12T08:12:35.809Z,4.23
2019-03-12T08:15:37.093Z,4.07
2019-03-12T08:18:43.876Z,4.13
2019-03-12T08:21:31.655Z,4.80
2019-03-12T08:24:35.042Z,4.27
2019-03-12T08:27:25.971Z,4.80
2019-03-12T08:30:09.180Z,4.67
2019-03-12T08:32:55.230Z,4.90
2019-03-12T08:35:48.762Z,4.47
2019-03-12T08:38:46.253Z,3.87
2019-03-12T08:41:26.977Z,5.00
2019-03-12T08:44:06.982Z,3.80
2019-03-12T08:46:56.746Z,4.77
2019-03-12T08:49:52.516Z,4.63
2019-03-12T08:52:40.158Z,4.70
2019-03-12T08:55:33.491Z,4.20
2019-03-12T08:58:37.893Z,4.63
2019-03-12T09:01:25.017Z,3.70
2019-03-12T09:04:07.724Z,3.40
2019-03-12T09:06:52.846Z,3.87
2019-03-12T09:09:28.577Z,3.90
2019-03-12T09:12:07.710Z,3.00
2019-03-12T09:15:14.591Z,3.50
2019-03-12T09:18:06.358Z,3.60
2019-03-12T09:21:01.611Z,3.03
2019-03-12T09:24:00.426Z,3.67
2019-03-12T09:26:37.282Z,3.50
2019-03-12T09:29:40.896Z,3.10
2019-03-12T09:32:27.415Z,3.20
2019-03-12T09:35:10.232Z,3.17
2019-03-12T09:37:57.381Z,3.27
2019-03-12T09:40:51.628Z,3.13
2019-03-12T09:43:48.088Z,3.07
2019-03-12T09:46:47.472Z,3.00
2019-03-12T09:49:27.996Z,3.40
2019-03-12T09:52:08.058Z,3.50
2019-03-12T09:54:47.890Z,3.43
2019-03-12T09:57:25.985Z,3.33
2019-03-12T10:00:15.711Z,3.43
2019-03-12T10:02:47.684Z,3.43
2019-03-12T10:05:41.927Z,3.77
2019-03-12T10:08:28.390Z,3.80
2019-03-12T10:11:16.528Z,4.07
2019-03-12T10:14:03.238Z,4.10
2019-03-12T10:17:03.275Z,3.90
2019-03-12T10:19:51.411Z,3.37
2019-03-12T10:22:52.199Z,4.50
2019-03-12T10:25:49.344Z,3.50
2019-03-12T10:28:28.173Z,3.90
2019-03-12T10:31:12.032Z,4.50
2019-03-12T10:33:51.549Z,5.00
2019-03-12T10:36:56.304Z,4.53
2019-03-12T10:40:06.874Z,4.27
2019-03-12T10:42:42.010Z,5.13
2019-03-12T10:45:21.503Z,5.80
2019-03-12T10:47:51.373Z,5.77
2019-03-12T10:50:21.715Z,5.60
2019-03-12T10:52:50.730Z,5.03
2019-03-12T10:55:22.261Z,5.27
2019-03-12T10:57:51.949Z,5.77
2019-03-12T11:00:21.437Z,6.47
2019-03-12T11:02:51.056Z,6.10
2019-03-12T11:05:21.153Z,5.80
2019-03-12T11:07:50.497Z,6.60
2019-03-12T11:10:19.607Z,6.37
2019-03-12T11:12:48.633Z,6.30
2019-03-12T11:15:18.440Z,5.60
2019-03-12T11:17:49.849Z,6.00
2019-03-12T11:20:19.989Z,6.07
2019-03-12T11:22:50.173Z,5.27
2019-03-12T11:25:27.732Z,5.10
2019-03-12T11:27:52.276Z,6.53
2019-03-12T11:30:21.225Z,5.80
2019-03-12T11:32:51.020Z,5.70
2019-03-12T11:35:20.470Z,7.00
2019-03-12T11:37:50.027Z,5.97
2019-03-12T11:40:19.899Z,6.83
2019-03-12T11:42:50.521Z,6.60
2019-03-12T11:45:25.758Z,6.20
2019-03-12T11:47:51.242Z,6.27
2019-03-12T11:50:29.161Z,7.77
2019-03-12T11:53:00.509Z,7.00
2019-03-12T11:55:30.980Z,6.77
2019-03-12T11:58:01.675Z,7.60
2019-03-12T12:00:34.472Z,7.43
2019-03-12T12:03:04.364Z,6.93
2019-03-12T12:05:33.549Z,6.70
2019-03-12T12:08:02.581Z,7.93
2019-03-12T12:10:34.100Z,7.50
2019-03-12T12:13:03.103Z,7.60
2019-03-12T12:15:32.753Z,8.80
2019-03-12T12:18:02.497Z,6.67
2019-03-12T12:23:06.532Z,6.67
2019-03-12T12:25:37.160Z,6.40
2019-03-12T12:28:07.521Z,6.10
2019-03-12T12:30:37.972Z,6.27
2019-03-12T12:33:08.951Z,6.03
2019-03-12T12:35:40.362Z,5.33
2019-03-12T12:38:10.065Z,6.10
2019-03-12T12:40:39.319Z,5.40
2019-03-12T12:43:10.103Z,5.50
2019-03-12T12:45:41.019Z,4.87
2019-03-12T12:48:13.287Z,5.17
2019-03-12T12:50:44.654Z,5.23
2019-03-12T12:53:17.595Z,4.97
2019-03-12T12:55:46.863Z,4.97
2019-03-12T12:58:18.510Z,4.77
2019-03-12T13:00:49.860Z,4.23
2019-03-12T13:03:19.876Z,4.03
2019-03-12T13:05:51.239Z,4.03
2019-03-12T13:08:21.234Z,3.83
2019-03-12T13:10:52.358Z,4.10
2019-03-12T13:13:22.441Z,3.87
2019-03-12T13:15:51.402Z,3.80
2019-03-12T13:18:23.919Z,4.00
2019-03-12T13:20:54.509Z,3.13
2019-03-12T13:23:23.491Z,3.20
2019-03-12T13:25:52.689Z,3.43
2019-03-12T13:28:25.139Z,3.33
2019-03-12T13:30:54.362Z,3.87
2019-03-12T13:33:24.796Z,3.37
2019-03-12T13:35:54.713Z,2.97
2019-03-12T13:38:24.594Z,3.20
2019-03-12T13:40:54.165Z,2.80
2019-03-12T13:43:24.917Z,3.37
2019-03-12T13:45:55.568Z,2.93
2019-03-12T13:48:26.149Z,2.47
2019-03-12T13:50:55.965Z,2.80
2019-03-12T13:53:25.082Z,3.13
2019-03-12T13:55:54.221Z,2.90
2019-03-12T13:58:24.644Z,2.73
2019-03-12T14:00:53.839Z,3.00
2019-03-12T14:03:24.407Z,3.07
2019-03-12T14:05:55.693Z,2.87
2019-03-12T14:08:25.414Z,2.23
2019-03-12T14:10:55.537Z,2.27
2019-03-12T14:13:26.449Z,2.53
2019-03-12T14:15:55.687Z,2.50
2019-03-12T14:18:24.950Z,2.30
2019-03-12T14:21:05.726Z,2.60
2019-03-12T14:24:00.650Z,2.60
2019-03-12T14:26:29.914Z,2.20
2019-03-12T14:29:00.487Z,2.83
2019-03-12T14:31:29.869Z,2.60
2019-03-12T14:33:59.496Z,2.33
2019-03-12T14:36:28.741Z,2.70
2019-03-12T14:38:59.012Z,2.13
2019-03-12T14:41:29.707Z,2.40
2019-03-12T14:43:59.591Z,2.50
2019-03-12T14:46:29.146Z,2.30
2019-03-12T14:49:03.754Z,2.70
2019-03-12T14:51:38.735Z,2.53
2019-03-12T14:54:08.594Z,2.43
2019-03-12T14:56:37.824Z,2.23
2019-03-12T14:59:07.685Z,2.30
2019-03-12T15:01:36.993Z,1.97
2019-03-12T15:04:06.405Z,2.33
2019-03-12T15:06:36.474Z,2.60
2019-03-12T15:09:09.191Z,2.30
2019-03-12T15:11:38.957Z,2.47
2019-03-12T15:14:08.367Z,2.70
2019-03-12T15:16:37.927Z,2.20
2019-03-12T15:19:07.687Z,2.20
2019-03-12T15:21:38.625Z,2.33
2019-03-12T15:24:08.066Z,3.03
2019-03-12T15:26:37.316Z,2.10
2019-03-12T15:29:08.742Z,1.73
2019-03-12T15:31:38.201Z,1.80
2019-03-12T15:34:07.734Z,2.20
2019-03-12T15:36:38.811Z,2.10
2019-03-12T15:39:10.098Z,1.90
2019-03-12T15:41:44.311Z,2.30
2019-03-12T15:44:18.940Z,1.93
2019-03-12T15:46:50.607Z,2.07
2019-03-12T15:49:21.088Z,1.90
2019-03-12T15:51:50.676Z,1.90
2019-03-12T15:54:20.340Z,2.27
2019-03-12T15:56:49.528Z,2.07
2019-03-12T15:59:18.858Z,1.70
2019-03-12T16:01:48.606Z,1.80
2019-03-12T16:04:18.084Z,2.10
2019-03-12T16:07:00.664Z,2.07
2019-03-12T16:09:25.626Z,2.00
2019-03-12T16:11:56.103Z,1.70
2019-03-12T16:14:25.086Z,1.73
2019-03-12T16:16:55.503Z,2.00
2019-03-12T16:19:25.669Z,1.97
2019-03-12T16:21:55.255Z,1.80
2019-03-12T16:24:25.635Z,1.60
2019-03-12T16:26:55.419Z,1.80
2019-03-12T16:29:24.920Z,1.70
2019-03-12T16:31:54.680Z,1.90
2019-03-12T16:34:25.362Z,2.17
2019-03-12T16:36:54.608Z,1.90
2019-03-12T16:39:24.691Z,2.03
2019-03-12T16:41:54.194Z,1.77
2019-03-12T16:44:23.288Z,2.00
2019-03-12T16:46:53.100Z,2.00
2019-03-12T16:49:24.280Z,1.70
2019-03-12T16:51:54.765Z,2.00
2019-03-12T16:54:25.339Z,2.20
2019-03-12T16:56:56.925Z,2.07
2019-03-12T16:59:27.625Z,2.00
2019-03-12T17:01:59.579Z,1.90
2019-03-12T17:04:30.076Z,2.30
2019-03-12T17:07:00.738Z,2.13
2019-03-12T17:09:34.356Z,2.07
2019-03-12T17:12:03.841Z,1.70
2019-03-12T17:14:38.962Z,2.10
2019-03-12T17:17:07.974Z,1.90
2019-03-12T17:19:38.828Z,2.00
2019-03-12T17:22:09.808Z,2.00
2019-03-12T17:24:39.170Z,2.63
2019-03-12T17:27:10.430Z,1.87
2019-03-12T17:29:48.702Z,1.90
2019-03-12T17:32:19.049Z,2.40
2019-03-12T17:34:48.125Z,2.67
2019-03-12T17:37:17.090Z,1.80
2019-03-12T17:39:45.954Z,1.80
2019-03-12T17:42:18.236Z,2.33
2019-03-12T17:44:47.291Z,2.00
2019-03-12T17:47:16.950Z,1.93
2019-03-12T17:57:29.046Z,2.03
2019-03-12T18:07:19.542Z,1.83
2019-03-12T18:09:55.049Z,2.00
2019-03-12T18:16:08.519Z,1.90
2019-03-12T18:18:37.566Z,1.97
2019-03-12T18:21:28.191Z,2.10
2019-03-12T18:24:45.660Z,2.27
2019-03-12T18:31:04.088Z,2.00
2019-03-12T18:33:37.408Z,1.77
2019-03-12T18:39:03.331Z,2.10
2019-03-12T18:41:34.126Z,1.93
2019-03-12T18:44:03.904Z,2.00
2019-03-12T18:46:35.188Z,2.10
2019-03-12T18:49:09.408Z,1.80
2019-03-12T18:51:38.464Z,1.63
2019-03-12T18:54:08.186Z,1.70
2019-03-12T18:56:38.354Z,1.77
2019-03-12T18:59:07.460Z,1.73
2019-03-12T19:01:36.510Z,1.77
2019-03-12T19:04:16.091Z,1.90
2019-03-12T19:07:18.389Z,1.90
2019-03-12T19:09:45.277Z,1.90
2019-03-12T19:12:14.154Z,1.90
2019-03-12T19:14:45.043Z,2.50
2019-03-12T19:17:19.523Z,2.00
2019-03-12T19:23:41.114Z,1.90
2019-03-12T19:26:10.925Z,1.90
2019-03-12T19:34:27.447Z,1.80
2019-03-12T19:36:56.399Z,2.17
2019-03-12T19:39:25.175Z,1.90
2019-03-12T19:41:54.394Z,1.80
2019-03-12T19:44:23.603Z,1.80
2019-03-12T19:46:52.782Z,1.60
2019-03-12T19:49:22.023Z,1.83
2019-03-12T19:51:51.154Z,2.07
2019-03-12T19:54:21.176Z,1.90
2019-03-12T19:56:50.610Z,2.10
2019-03-12T19:59:20.172Z,2.10
2019-03-12T20:01:52.170Z,1.77
2019-03-12T20:04:21.044Z,1.60
2019-03-12T20:07:13.295Z,1.90
2019-03-12T20:10:13.065Z,1.90
2019-03-12T20:13:19.112Z,2.30
2019-03-12T20:16:17.954Z,1.80
2019-03-12T20:19:32.595Z,1.60
2019-03-12T20:22:42.353Z,1.70
2019-03-12T20:26:03.541Z,1.90
2019-03-12T20:29:26.456Z,1.90
2019-03-12T20:32:58.030Z,2.00
2019-03-12T20:36:02.418Z,1.73
2019-03-12T20:39:07.253Z,1.70
2019-03-12T20:42:12.093Z,2.00
2019-03-12T20:45:16.855Z,1.90
2019-03-12T20:48:24.831Z,1.80
2019-03-12T20:51:26.099Z,1.40
2019-03-12T20:54:31.204Z,2.03
2019-03-12T20:57:37.003Z,1.40
2019-03-12T21:00:59.263Z,1.57
2019-03-12T21:04:33.308Z,1.63
2019-03-12T21:07:47.864Z,1.63
2019-03-12T21:10:46.921Z,2.00
2019-03-12T21:14:03.521Z,1.87
2019-03-12T21:16:54.037Z,1.73
2019-03-12T21:23:19.631Z,1.67
2019-03-12T21:26:10.383Z,1.43
2019-03-12T21:29:08.744Z,1.80
2019-03-12T21:31:37.636Z,1.30
2019-03-12T21:34:07.002Z,1.60
2019-03-12T21:36:39.725Z,1.40
2019-03-12T21:39:15.184Z,1.50
2019-03-12T21:41:45.327Z,1.50
2019-03-12T21:44:14.930Z,1.30
2019-03-12T21:46:48.653Z,1.50
2019-03-12T21:49:17.749Z,1.43
2019-03-12T21:51:50.157Z,1.73
2019-03-12T21:54:23.646Z,1.53
2019-03-12T22:03:32.113Z,1.60
2019-03-12T22:06:01.962Z,1.70
2019-03-12T22:08:31.745Z,1.50
2019-03-12T22:11:03.449Z,1.50
2019-03-12T22:13:34.768Z,1.30
2019-03-12T22:16:08.631Z,1.30
2019-03-12T22:19:00.380Z,1.30
2019-03-12T22:21:36.643Z,1.50
2019-03-12T22:24:08.460Z,1.67
2019-03-12T22:26:41.472Z,1.50
2019-03-12T22:29:13.015Z,1.60
2019-03-12T22:31:43.549Z,1.50
2019-03-12T22:35:14.197Z,1.43
2019-03-12T22:38:01.549Z,1.40
2019-03-12T22:40:35.632Z,1.30
2019-03-12T22:43:04.429Z,1.23
2019-03-12T22:45:33.351Z,1.10
2019-03-12T22:48:13.653Z,1.50
2019-03-12T22:50:42.811Z,1.60
2019-03-12T22:53:11.668Z,1.40
2019-03-12T22:55:41.650Z,1.27
2019-03-12T23:04:23.457Z,1.60
2019-03-12T23:06:52.432Z,1.67
2019-03-12T23:09:24.292Z,1.93
2019-03-12T23:12:05.845Z,1.73
2019-03-12T23:14:36.875Z,1.50
2019-03-12T23:19:37.539Z,1.70
2019-03-12T23:22:08.675Z,1.50
2019-03-12T23:24:42.905Z,1.23
2019-03-12T23:27:12.997Z,1.53
2019-03-12T23:29:42.396Z,1.73
2019-03-12T23:32:14.479Z,1.77
2019-03-12T23:34:46.296Z,1.40
2019-03-12T23:37:16.940Z,1.40
2019-03-12T23:39:47.054Z,1.50
2019-03-12T23:42:17.835Z,1.50
2019-03-12T23:44:46.729Z,1.60
2019-03-12T23:47:17.443Z,1.60
2019-03-12T23:49:46.603Z,1.90
2019-03-12T23:52:17.927Z,1.63
2019-03-12T23:54:48.567Z,1.60
2019-03-12T23:57:22.274Z,1.50
2019-03-12T23:59:51.145Z,1.90
